Time;durP1;ratioP1;P1;durP2;ratioP2;P2;SDS_P1;SDS_P2;PMS_P1;PMS_P2;Temp;Humidity;BMP_temperature;BMP_pressure;BME280_temperature;BME280_humidity;BME280_pressure;Samples;Min_cycle;Max_cycle;Signal;HPM_P1;HPM_P2
2020/12/02 00:03:01;;;;;;;14.73;4.00;;;10.60;99.90;;;;;;5065867;28;20082;-80
2020/12/02 00:05:29;;;;;;;9.55;2.90;;;10.60;99.90;;;;;;5067600;28;20394;-80
2020/12/02 00:08:05;;;;;;;6.93;2.75;;;10.70;99.90;;;;;;5065868;28;20115;-80
2020/12/02 00:10:31;;;;;;;11.93;3.25;;;10.60;99.90;;;;;;5066177;28;20428;-81
2020/12/02 00:12:56;;;;;;;9.40;3.03;;;10.70;99.90;;;;;;5067239;28;20025;-81
2020/12/02 00:15:22;;;;;;;13.13;3.30;;;10.70;99.90;;;;;;5032680;28;20032;-81
2020/12/02 00:17:56;;;;;;;10.93;3.63;;;10.70;99.90;;;;;;5032486;28;20377;-80
2020/12/02 00:20:23;;;;;;;14.57;3.38;;;10.70;99.90;;;;;;5065712;28;20028;-79
2020/12/02 00:22:49;;;;;;;9.50;3.30;;;10.70;99.90;;;;;;5067080;28;20101;-80
2020/12/02 00:25:15;;;;;;;16.13;3.53;;;10.70;99.90;;;;;;5065426;28;20085;-80
2020/12/02 00:27:41;;;;;;;14.85;4.10;;;10.70;99.90;;;;;;5066997;28;20471;-81
2020/12/02 00:30:12;;;;;;;13.60;4.53;;;10.70;99.90;;;;;;5065820;28;20031;-80
2020/12/02 00:32:41;;;;;;;9.10;3.60;;;10.70;99.90;;;;;;5066947;28;20035;-80
2020/12/02 00:35:18;;;;;;;14.57;4.45;;;10.70;99.90;;;;;;5065962;28;20484;-80
2020/12/02 00:37:45;;;;;;;10.95;3.90;;;10.60;99.90;;;;;;5065670;28;20036;-81
2020/12/02 00:40:14;;;;;;;13.68;4.90;;;10.60;99.90;;;;;;5065795;28;20118;-81
2020/12/02 00:42:40;;;;;;;14.45;4.30;;;10.60;99.90;;;;;;5066558;28;20037;-81
2020/12/02 00:45:08;;;;;;;12.55;3.50;;;10.70;99.90;;;;;;5052499;28;20040;-80
2020/12/02 00:47:35;;;;;;;9.73;3.45;;;10.70;99.90;;;;;;5070387;28;20050;-81
2020/12/02 00:50:01;;;;;;;10.32;4.13;;;10.70;99.90;;;;;;5070410;28;20064;-81
2020/12/02 00:52:26;;;;;;;9.35;3.60;;;10.70;99.90;;;;;;5069169;28;20028;-81
2020/12/02 00:54:53;;;;;;;16.23;3.90;;;10.70;99.90;;;;;;5052411;28;20431;-80
2020/12/02 00:57:28;;;;;;;13.30;5.05;;;10.70;99.90;;;;;;5070733;28;20235;-80
2020/12/02 00:59:56;;;;;;;11.48;4.85;;;10.70;99.90;;;;;;5069107;28;20033;-80
2020/12/02 01:02:34;;;;;;;13.80;5.05;;;10.70;99.90;;;;;;5068918;28;20035;-81
2020/12/02 01:05:00;;;;;;;7.30;4.25;;;10.70;99.90;;;;;;5068695;28;20060;-81
2020/12/02 01:07:27;;;;;;;10.80;4.05;;;10.70;99.90;;;;;;5052187;28;20036;-80
2020/12/02 01:09:54;;;;;;;14.55;5.10;;;10.70;99.90;;;;;;5070126;28;20021;-80
2020/12/02 01:12:20;;;;;;;6.82;3.92;;;10.70;99.90;;;;;;5070184;28;20024;-81
2020/12/02 01:14:48;;;;;;;18.42;5.20;;;10.80;99.90;;;;;;5068862;28;20560;-80
2020/12/02 01:17:14;;;;;;;9.98;4.88;;;10.70;99.90;;;;;;5068503;28;20028;-81
2020/12/02 01:19:41;;;;;;;12.02;4.65;;;10.70;99.90;;;;;;5068831;28;20191;-80
2020/12/02 01:22:20;;;;;;;12.88;5.07;;;10.80;99.90;;;;;;5069916;28;20364;-81
2020/12/02 01:25:14;;;;;;;8.25;3.85;;;10.80;99.90;;;;;;5069534;28;20459;-81
2020/12/02 01:27:57;;;;;;;7.25;3.28;;;10.80;99.90;;;;;;5067107;28;20468;-81
2020/12/02 01:30:24;;;;;;;8.18;4.28;;;10.80;99.90;;;;;;5068563;28;20475;-81
2020/12/02 01:32:50;;;;;;;11.65;3.33;;;10.80;99.90;;;;;;5068425;28;20231;-80
2020/12/02 01:35:21;;;;;;;6.43;3.20;;;10.80;99.90;;;;;;5035213;28;20029;-81
2020/12/02 01:37:51;;;;;;;13.18;3.63;;;10.80;99.90;;;;;;5068391;28;20467;-81
2020/12/02 01:40:23;;;;;;;11.68;3.97;;;10.80;99.90;;;;;;5068171;28;20036;-80
2020/12/02 01:42:55;;;;;;;8.38;4.45;;;10.80;99.90;;;;;;5068194;28;20482;-80
2020/12/02 01:45:34;;;;;;;17.17;4.35;;;10.80;99.90;;;;;;5068008;28;20025;-80
2020/12/02 01:48:24;;;;;;;12.05;4.93;;;10.70;99.90;;;;;;5068052;28;20035;-80
2020/12/02 01:51:20;;;;;;;15.43;4.53;;;10.70;99.90;;;;;;5067997;28;20040;-81
2020/12/02 01:54:00;;;;;;;10.90;4.50;;;10.70;99.90;;;;;;5067478;28;20031;-82
2020/12/02 01:56:40;;;;;;;14.32;5.10;;;10.70;99.90;;;;;;5069185;28;20053;-81
2020/12/02 01:59:34;;;;;;;8.45;4.82;;;10.60;99.90;;;;;;5067952;28;20037;-80
2020/12/02 02:02:14;;;;;;;12.60;4.38;;;10.60;99.90;;;;;;5069099;28;20033;-80
2020/12/02 02:04:51;;;;;;;11.13;4.35;;;10.70;99.90;;;;;;5067641;28;20028;-81
2020/12/02 02:07:24;;;;;;;10.65;5.03;;;10.60;99.90;;;;;;5067805;28;20020;-80
2020/12/02 02:10:06;;;;;;;15.30;4.40;;;10.60;99.90;;;;;;5067675;28;20032;-81
2020/12/02 02:12:50;;;;;;;11.90;5.30;;;10.60;99.90;;;;;;5067564;28;20383;-80
2020/12/02 02:15:28;;;;;;;11.00;4.25;;;10.70;99.90;;;;;;5067666;28;20077;-81
2020/12/02 02:17:56;;;;;;;11.48;4.75;;;10.70;99.90;;;;;;5067436;28;20028;-81
2020/12/02 02:20:28;;;;;;;12.55;4.40;;;10.60;99.90;;;;;;5068707;28;20453;-81
2020/12/02 02:22:53;;;;;;;13.15;3.53;;;10.60;99.90;;;;;;5068725;28;20062;-81
2020/12/02 02:25:19;;;;;;;12.52;3.72;;;10.60;99.90;;;;;;5068295;28;20052;-81
2020/12/02 02:27:46;;;;;;;13.93;3.35;;;10.60;99.90;;;;;;5067268;28;20028;-81
2020/12/02 02:30:13;;;;;;;9.35;3.58;;;10.60;99.90;;;;;;5050617;28;20025;-81
2020/12/02 02:32:40;;;;;;;8.82;3.20;;;10.60;99.90;;;;;;5067231;28;20021;-81
2020/12/02 02:35:06;;;;;;;6.07;3.00;;;10.60;99.90;;;;;;5050517;28;20058;-81
2020/12/02 02:37:32;;;;;;;9.00;2.75;;;10.50;99.90;;;;;;5067303;28;20032;-81
2020/12/02 02:40:00;;;;;;;6.75;3.70;;;10.60;99.90;;;;;;5050422;28;20038;-81
2020/12/02 02:42:34;;;;;;;5.60;2.30;;;10.50;99.90;;;;;;5067022;28;20098;-81
2020/12/02 02:45:04;;;;;;;7.80;3.20;;;10.50;99.90;;;;;;5066889;28;20082;-81
2020/12/02 02:47:29;;;;;;;;;;;10.50;99.90;;;;;;5068697;28;20024;-82
2020/12/02 02:49:55;;;;;;;6.03;2.10;;;10.60;99.90;;;;;;5066783;28;20355;-81
2020/12/02 02:52:20;;;;;;;5.60;3.03;;;10.50;99.90;;;;;;5066883;28;20024;-81
2020/12/02 02:54:46;;;;;;;5.30;2.05;;;10.50;99.90;;;;;;5033465;28;20028;-80
2020/12/02 02:57:13;;;;;;;3.65;1.77;;;10.50;99.90;;;;;;5066752;28;20032;-82
2020/12/02 02:59:38;;;;;;;8.60;2.05;;;10.50;99.90;;;;;;5049876;28;20033;-81
2020/12/02 03:02:05;;;;;;;9.00;2.42;;;10.50;99.90;;;;;;5066777;28;20044;-80
2020/12/02 03:04:31;;;;;;;10.88;2.78;;;10.50;99.90;;;;;;5049650;28;20028;-81
2020/12/02 03:06:57;;;;;;;5.65;2.75;;;10.50;99.90;;;;;;5066066;28;20383;-81
2020/12/02 03:09:23;;;;;;;7.50;2.40;;;10.50;99.90;;;;;;5049983;28;20025;-81
2020/12/02 03:11:53;;;;;;;8.50;3.60;;;10.50;99.90;;;;;;5066397;28;20028;-81
2020/12/02 03:14:18;;;;;;;7.22;1.88;;;10.60;99.90;;;;;;5066543;28;20032;-81
2020/12/02 03:16:55;;;;;;;6.40;2.17;;;10.60;99.90;;;;;;5049823;28;20364;-81
2020/12/02 03:19:32;;;;;;;7.30;2.00;;;10.60;99.90;;;;;;5066559;28;20032;-81
2020/12/02 03:22:05;;;;;;;7.18;2.13;;;10.60;99.90;;;;;;5066603;28;20127;-81
2020/12/02 03:24:32;;;;;;;6.30;1.67;;;10.60;99.90;;;;;;5067455;28;20059;-82
2020/12/02 03:26:58;;;;;;;7.95;2.10;;;10.60;99.90;;;;;;5050149;28;20052;-81
2020/12/02 03:29:24;;;;;;;7.60;2.60;;;10.60;99.90;;;;;;5049614;28;20471;-81
2020/12/02 03:31:50;;;;;;;4.35;2.17;;;10.60;99.90;;;;;;5066352;28;20453;-81
2020/12/02 03:34:21;;;;;;;7.90;2.20;;;10.60;99.90;;;;;;5049707;28;20033;-81
2020/12/02 03:36:47;;;;;;;4.45;2.30;;;10.70;99.90;;;;;;5066288;28;20032;-81
2020/12/02 03:39:14;;;;;;;5.95;1.88;;;10.70;99.90;;;;;;5066454;28;20025;-80
2020/12/02 03:41:40;;;;;;;7.20;3.08;;;10.70;99.90;;;;;;5067543;28;20027;-81
2020/12/02 03:44:07;;;;;;;4.03;2.10;;;10.70;99.90;;;;;;5049368;28;20505;-81
2020/12/02 03:46:33;;;;;;;5.78;2.53;;;10.70;99.90;;;;;;5066001;28;20526;-81
2020/12/02 03:49:00;;;;;;;5.25;2.60;;;10.70;99.90;;;;;;5066327;28;20386;-82
2020/12/02 03:51:26;;;;;;;7.88;2.67;;;10.70;99.90;;;;;;5066212;28;20463;-81
2020/12/02 03:53:52;;;;;;;9.73;3.38;;;10.70;99.90;;;;;;5066210;28;20032;-81
2020/12/02 03:56:19;;;;;;;4.15;2.88;;;10.70;99.90;;;;;;5032861;28;20057;-82
2020/12/02 03:58:46;;;;;;;8.00;2.63;;;10.70;99.90;;;;;;5049519;28;20632;-81
2020/12/02 04:01:12;;;;;;;8.35;2.83;;;10.80;99.90;;;;;;5066181;28;20040;-81
2020/12/02 04:03:38;;;;;;;6.03;2.55;;;10.70;99.90;;;;;;5066021;28;20086;-81
2020/12/02 04:06:09;;;;;;;4.25;2.00;;;10.80;99.90;;;;;;5049368;28;20024;-81
2020/12/02 04:08:37;;;;;;;5.65;2.17;;;10.70;99.90;;;;;;5065978;28;20456;-81
2020/12/02 04:11:04;;;;;;;4.55;2.00;;;10.70;99.90;;;;;;5065765;28;20046;-81
2020/12/02 04:13:30;;;;;;;10.95;2.60;;;10.80;99.90;;;;;;5033145;28;20173;-81
2020/12/02 04:15:56;;;;;;;7.97;2.50;;;10.80;99.90;;;;;;5032709;28;20391;-80
2020/12/02 04:18:22;;;;;;;5.80;1.92;;;10.80;99.90;;;;;;5053094;28;20032;-81
2020/12/02 04:20:48;;;;;;;5.28;2.30;;;10.80;99.90;;;;;;5053132;28;20387;-81
2020/12/02 04:23:13;;;;;;;7.22;2.40;;;10.80;99.90;;;;;;5052877;28;20128;-81
2020/12/02 04:25:39;;;;;;;4.57;2.28;;;10.70;99.90;;;;;;5052558;28;20048;-81
2020/12/02 04:28:05;;;;;;;8.00;1.85;;;10.80;99.90;;;;;;5071039;28;20024;-81
2020/12/02 04:30:31;;;;;;;7.30;2.53;;;10.80;99.90;;;;;;5053174;28;20541;-81
2020/12/02 04:32:56;;;;;;;3.47;1.55;;;10.80;99.90;;;;;;5069705;28;20032;-81
2020/12/02 04:35:22;;;;;;;8.38;2.42;;;10.70;99.90;;;;;;5069467;28;20398;-81
2020/12/02 04:37:48;;;;;;;8.75;2.58;;;10.70;99.90;;;;;;5069328;28;20584;-81
2020/12/02 04:40:29;;;;;;;10.45;2.75;;;10.70;99.90;;;;;;5036123;28;20040;-81
2020/12/02 04:43:17;;;;;;;4.97;2.42;;;10.70;99.90;;;;;;5070620;28;20428;-82
2020/12/02 04:45:43;;;;;;;3.90;2.22;;;10.70;99.90;;;;;;5070275;28;20025;-81
2020/12/02 04:48:13;;;;;;;7.30;2.38;;;10.60;99.90;;;;;;5052362;28;20435;-81
2020/12/02 04:50:40;;;;;;;9.60;2.35;;;10.60;99.90;;;;;;5070167;28;20032;-81
2020/12/02 04:53:18;;;;;;;9.00;2.53;;;10.70;99.90;;;;;;5068919;28;20115;-81
2020/12/02 04:55:46;;;;;;;6.28;2.00;;;10.60;99.90;;;;;;5068739;28;20491;-82
2020/12/02 04:58:18;;;;;;;5.38;2.08;;;10.70;99.90;;;;;;5068881;28;20335;-81
2020/12/02 05:00:44;;;;;;;5.82;1.70;;;10.60;99.90;;;;;;5068731;28;20025;-81
2020/12/02 05:03:13;;;;;;;9.55;1.65;;;10.60;99.90;;;;;;5068943;28;20086;-80
2020/12/02 05:05:38;;;;;;;2.45;1.88;;;10.60;99.90;;;;;;5068712;28;20024;-81
2020/12/02 05:08:20;;;;;;;9.10;2.00;;;10.60;99.90;;;;;;5052363;28;20025;-81
2020/12/02 05:10:45;;;;;;;3.75;1.83;;;10.50;99.90;;;;;;5052537;28;20025;-80
2020/12/02 05:13:12;;;;;;;4.03;1.90;;;10.50;99.90;;;;;;5068941;28;20544;-81
2020/12/02 05:15:38;;;;;;;5.32;1.63;;;10.50;99.90;;;;;;5068720;28;20013;-82
2020/12/02 05:18:24;;;;;;;2.47;1.50;;;10.50;99.90;;;;;;5052403;28;20673;-81
2020/12/02 05:21:19;;;;;;;5.25;1.58;;;10.50;99.90;;;;;;5068197;28;20036;-81
2020/12/02 05:24:03;;;;;;;3.28;1.42;;;10.40;99.90;;;;;;5069947;28;20056;-81
2020/12/02 05:26:31;;;;;;;3.15;1.40;;;10.40;99.90;;;;;;5068436;28;20069;-81
2020/12/02 05:28:57;;;;;;;4.22;1.27;;;10.50;99.90;;;;;;5067460;28;20024;-81
2020/12/02 05:31:31;;;;;;;2.60;1.17;;;10.40;99.90;;;;;;5051946;28;20463;-80
2020/12/02 05:34:15;;;;;;;6.80;2.10;;;10.40;99.90;;;;;;5069675;28;20107;-81
2020/12/02 05:36:48;;;;;;;3.10;2.15;;;10.40;99.90;;;;;;5069597;28;20081;-80
2020/12/02 05:39:35;;;;;;;4.55;2.00;;;10.40;99.90;;;;;;5069678;28;20050;-81
2020/12/02 05:42:05;;;;;;;3.53;1.70;;;10.40;99.90;;;;;;5068397;28;20471;-81
2020/12/02 05:44:39;;;;;;;13.07;1.85;;;10.40;99.90;;;;;;5069424;28;20032;-80
2020/12/02 05:47:18;;;;;;;13.18;1.83;;;10.30;99.90;;;;;;5068114;28;20027;-80
2020/12/02 05:49:44;;;;;;;14.10;2.15;;;10.30;99.90;;;;;;5069548;28;20016;-81
2020/12/02 05:52:20;;;;;;;15.65;1.73;;;10.20;99.90;;;;;;5069514;28;20495;-81
2020/12/02 05:54:48;;;;;;;10.63;1.80;;;10.10;99.90;;;;;;5068291;28;20028;-81
2020/12/02 05:57:18;;;;;;;12.00;2.53;;;10.00;99.90;;;;;;5067957;28;20108;-81
2020/12/02 05:59:46;;;;;;;19.95;3.22;;;9.80;99.90;;;;;;5067873;28;20427;-80
2020/12/02 06:02:15;;;;;;;13.00;2.45;;;9.70;99.90;;;;;;5068253;28;20455;-81
2020/12/02 06:04:41;;;;;;;10.65;2.03;;;9.60;99.90;;;;;;5051067;28;20119;-81
2020/12/02 06:07:06;;;;;;;15.18;2.55;;;9.50;99.90;;;;;;5034774;28;20112;-80
2020/12/02 06:09:47;;;;;;;16.55;2.50;;;9.50;99.90;;;;;;5069174;28;20108;-81
2020/12/02 06:12:15;;;;;;;15.68;3.13;;;9.50;99.90;;;;;;5067613;28;20178;-81
2020/12/02 06:14:41;;;;;;;15.88;2.72;;;9.40;99.90;;;;;;5067703;28;20036;-80
2020/12/02 06:17:13;;;;;;;23.33;2.97;;;9.40;99.90;;;;;;5068915;28;20035;-81
2020/12/02 06:19:39;;;;;;;13.05;2.40;;;9.40;99.90;;;;;;5068967;28;20021;-81
2020/12/02 06:22:07;;;;;;;24.08;3.83;;;9.40;99.90;;;;;;5067383;28;20532;-81
2020/12/02 06:24:42;;;;;;;15.20;4.22;;;9.40;99.90;;;;;;5067162;28;20106;-81
2020/12/02 06:27:14;;;;;;;19.73;3.70;;;9.40;99.90;;;;;;5068497;28;20054;-81
2020/12/02 06:29:40;;;;;;;21.52;3.30;;;9.40;99.90;;;;;;5068898;28;20036;-81
2020/12/02 06:32:22;;;;;;;19.08;2.88;;;9.40;99.90;;;;;;5068375;28;20118;-80
2020/12/02 06:35:06;;;;;;;30.67;5.32;;;9.30;99.90;;;;;;5067122;28;20111;-81
2020/12/02 06:37:32;;;;;;;15.55;3.50;;;9.30;99.90;;;;;;5067294;28;20031;-81
2020/12/02 06:39:59;;;;;;;17.48;2.95;;;9.30;99.90;;;;;;5033845;28;20037;-80
2020/12/02 06:42:41;;;;;;;24.55;4.28;;;9.30;99.90;;;;;;5050651;28;20403;-81
2020/12/02 06:45:16;;;;;;;16.23;2.90;;;9.30;99.90;;;;;;5066931;28;20395;-81
2020/12/02 06:47:50;;;;;;;29.15;4.32;;;9.30;99.90;;;;;;5068774;28;20053;-80
2020/12/02 06:50:23;;;;;;;29.42;3.25;;;9.30;99.90;;;;;;5067148;28;20031;-81
2020/12/02 06:52:49;;;;;;;21.60;3.03;;;9.30;99.90;;;;;;5066930;28;20218;-81
2020/12/02 06:55:20;;;;;;;21.75;3.90;;;9.20;99.90;;;;;;5067916;28;20020;-81
2020/12/02 06:57:46;;;;;;;19.23;3.83;;;9.20;99.90;;;;;;5066586;28;20383;-81
2020/12/02 07:00:22;;;;;;;15.50;2.97;;;9.20;99.90;;;;;;5049814;28;20119;-80
2020/12/02 07:02:55;;;;;;;15.15;2.90;;;9.10;99.90;;;;;;5068259;28;20146;-80
2020/12/02 07:05:35;;;;;;;19.85;3.28;;;9.00;99.90;;;;;;5068224;28;20026;-80
2020/12/02 07:08:13;;;;;;;23.65;4.75;;;8.80;99.90;;;;;;5066896;28;20024;-80
2020/12/02 07:10:41;;;;;;;17.20;3.55;;;8.70;99.90;;;;;;5068002;28;20021;-81
2020/12/02 07:13:12;;;;;;;27.52;3.50;;;8.60;99.90;;;;;;5066703;28;20029;-80
2020/12/02 07:15:38;;;;;;;19.85;3.80;;;8.40;99.90;;;;;;5066849;28;20090;-80
2020/12/02 07:18:24;;;;;;;22.20;3.92;;;8.40;99.90;;;;;;5033532;28;20028;-81
2020/12/02 07:21:02;;;;;;;27.95;4.35;;;8.30;99.90;;;;;;5066248;28;20048;-80
2020/12/02 07:23:30;;;;;;;27.88;5.05;;;8.20;99.90;;;;;;5068118;28;20416;-80
2020/12/02 07:25:56;;;;;;;18.00;3.67;;;8.20;99.90;;;;;;5066172;28;20097;-80
2020/12/02 07:28:22;;;;;;;17.20;3.10;;;8.10;99.90;;;;;;5049719;28;20036;-81
2020/12/02 07:30:49;;;;;;;25.63;4.63;;;8.00;99.90;;;;;;5067893;28;20429;-81
2020/12/02 07:33:28;;;;;;;21.27;4.13;;;8.00;99.90;;;;;;5066415;28;20067;-81
2020/12/02 07:36:03;;;;;;;30.48;4.45;;;7.90;99.90;;;;;;5066215;28;20028;-81
2020/12/02 07:38:29;;;;;;;31.23;4.05;;;7.90;99.90;;;;;;5067645;28;20025;-80
2020/12/02 07:41:05;;;;;;;23.48;3.28;;;7.90;99.90;;;;;;5033562;28;20039;-80
2020/12/02 07:43:31;;;;;;;23.88;3.20;;;7.80;99.90;;;;;;5066484;28;20227;-81
2020/12/02 07:46:00;;;;;;;30.25;4.10;;;7.80;99.90;;;;;;5066248;28;20025;-80
2020/12/02 07:48:28;;;;;;;27.67;3.65;;;7.70;99.90;;;;;;5067158;28;20028;-80
2020/12/02 07:51:05;;;;;;;26.67;4.03;;;7.70;99.90;;;;;;5049763;28;20032;-81
2020/12/02 07:53:34;;;;;;;30.38;3.65;;;7.60;99.90;;;;;;5070631;28;20119;-81
2020/12/02 07:56:01;;;;;;;18.13;3.03;;;7.60;99.90;;;;;;5070574;28;20024;-77
2020/12/02 07:58:34;;;;;;;27.48;7.60;;;7.60;99.90;;;;;;5070271;28;20032;-81
2020/12/02 08:01:06;;;;;;;27.83;4.47;;;7.50;99.90;;;;;;5070434;28;20386;-81
2020/12/02 08:03:40;;;;;;;33.03;3.70;;;7.50;99.90;;;;;;5069877;28;20073;-81
2020/12/02 08:06:09;;;;;;;22.80;3.95;;;7.40;99.90;;;;;;5070020;28;20031;-81
2020/12/02 08:08:34;;;;;;;21.75;3.63;;;7.40;99.90;;;;;;5071507;28;20032;-81
2020/12/02 08:11:06;;;;;;;26.65;4.28;;;7.30;99.90;;;;;;5069467;28;20532;-81
2020/12/02 08:13:34;;;;;;;29.30;4.28;;;7.30;99.90;;;;;;5070941;28;20020;-81
2020/12/02 08:16:01;;;;;;;29.90;4.57;;;7.30;99.90;;;;;;5037330;28;20036;-80
2020/12/02 08:18:29;;;;;;;28.27;4.78;;;7.20;99.90;;;;;;5052988;28;20085;-81
2020/12/02 08:21:09;;;;;;;26.35;4.70;;;7.20;99.90;;;;;;5069528;28;20029;-81
2020/12/02 08:23:36;;;;;;;26.30;4.68;;;7.20;99.90;;;;;;5070846;28;20039;-81
2020/12/02 08:26:15;;;;;;;26.30;4.72;;;7.20;99.90;;;;;;5069068;28;20063;-81
2020/12/02 08:28:41;;;;;;;32.05;4.57;;;7.10;99.90;;;;;;5069514;28;20409;-80
2020/12/02 08:31:16;;;;;;;33.78;5.82;;;7.10;99.90;;;;;;5053094;28;20039;-81
2020/12/02 08:34:25;;;;;;;31.35;6.22;;;7.10;99.90;;;;;;5069128;28;20498;-80
2020/12/02 08:37:14;;;;;;;31.30;5.10;;;7.10;99.90;;;;;;5069190;28;20025;-81
2020/12/02 08:39:44;;;;;;;26.83;5.18;;;7.10;99.90;;;;;;5070576;28;20102;-83
2020/12/02 08:42:31;;;;;;;29.60;5.90;;;7.10;99.90;;;;;;5053165;28;20394;-81
2020/12/02 08:45:16;;;;;;;34.10;4.45;;;7.10;99.90;;;;;;5067947;28;20028;-80
2020/12/02 08:47:42;;;;;;;18.20;3.92;;;7.10;99.90;;;;;;5067935;28;20125;-80
2020/12/02 08:50:22;;;;;;;18.17;3.95;;;7.10;99.90;;;;;;5068642;28;20068;-81
2020/12/02 08:52:56;;;;;;;27.23;4.45;;;7.20;99.90;;;;;;5066702;28;20046;-77
2020/12/02 08:55:23;;;;;;;35.13;5.10;;;7.20;99.90;;;;;;5065542;28;20032;-81
2020/12/02 08:57:49;;;;;;;30.27;5.68;;;7.30;99.90;;;;;;5069240;28;20085;-81
2020/12/02 09:00:20;;;;;;;23.67;4.03;;;7.30;99.90;;;;;;5073458;28;20024;-81
2020/12/02 09:02:46;;;;;;;25.85;4.10;;;7.40;99.90;;;;;;5089893;28;20028;-80
2020/12/02 09:05:12;;;;;;;23.77;3.88;;;7.70;99.90;;;;;;5088417;28;20028;-81
2020/12/02 09:07:37;;;;;;;22.65;4.20;;;7.90;99.90;;;;;;5072644;28;20024;-81
2020/12/02 09:10:05;;;;;;;27.45;8.98;;;8.10;99.90;;;;;;5089450;28;20043;-80
2020/12/02 09:12:31;;;;;;;14.88;3.50;;;8.30;99.90;;;;;;5070878;28;20123;-81
2020/12/02 09:14:56;;;;;;;24.13;4.30;;;8.50;99.90;;;;;;5071604;28;20197;-81
2020/12/02 09:17:23;;;;;;;28.92;4.95;;;8.60;99.70;;;;;;5070956;28;20032;-80
2020/12/02 09:19:50;;;;;;;18.38;4.15;;;8.70;99.20;;;;;;5054926;28;20044;-80
2020/12/02 09:22:16;;;;;;;28.75;4.93;;;8.60;98.70;;;;;;5068254;28;20024;-81
2020/12/02 09:24:44;;;;;;;27.23;5.38;;;8.50;98.40;;;;;;5067053;28;20396;-80
2020/12/02 09:27:10;;;;;;;23.92;5.50;;;8.60;98.80;;;;;;5049756;28;20043;-80
2020/12/02 09:29:36;;;;;;;17.83;3.78;;;8.70;99.20;;;;;;5067429;28;20537;-80
2020/12/02 09:32:02;;;;;;;25.42;5.72;;;9.00;99.10;;;;;;5067200;28;20311;-80
2020/12/02 09:34:28;;;;;;;23.48;4.43;;;9.10;98.60;;;;;;5066148;28;20032;-80
2020/12/02 09:36:53;;;;;;;19.45;4.30;;;9.30;98.70;;;;;;5066956;28;20110;-80
2020/12/02 09:39:21;;;;;;;23.70;5.13;;;9.40;98.30;;;;;;5067462;28;20220;-80
2020/12/02 09:42:06;;;;;;;22.00;4.60;;;9.50;98.10;;;;;;5068759;28;20104;-80
2020/12/02 09:44:48;;;;;;;19.30;4.85;;;9.70;97.90;;;;;;5067542;28;20052;-80
2020/12/02 09:47:16;;;;;;;13.88;3.55;;;10.10;97.80;;;;;;5068874;28;20104;-80
2020/12/02 09:49:47;;;;;;;17.50;4.00;;;10.50;98.00;;;;;;5068844;28;20048;-80
2020/12/02 09:52:12;;;;;;;18.45;3.83;;;11.10;98.10;;;;;;5066974;28;20021;-80
2020/12/02 09:54:45;;;;;;;13.75;4.13;;;11.70;97.50;;;;;;5066817;28;20225;-80
2020/12/02 09:57:26;;;;;;;21.40;4.50;;;12.30;97.00;;;;;;5066623;28;20036;-80
2020/12/02 09:59:54;;;;;;;16.77;3.58;;;12.70;95.70;;;;;;5067019;28;20032;-80
2020/12/02 10:02:58;;;;;;;22.15;4.40;;;13.00;95.20;;;;;;5049939;28;20386;-80
2020/12/02 10:05:45;;;;;;;13.57;3.65;;;13.40;94.60;;;;;;5061712;28;20616;-79
2020/12/02 10:08:33;;;;;;;19.55;4.35;;;13.60;93.70;;;;;;5067234;28;20028;-80
2020/12/02 10:11:16;;;;;;;17.23;3.83;;;13.40;92.80;;;;;;5069173;28;20029;-81
2020/12/02 10:13:58;;;;;;;21.63;4.78;;;13.10;92.70;;;;;;5070676;28;20032;-81
2020/12/02 10:16:43;;;;;;;20.20;3.60;;;12.60;92.10;;;;;;5069363;28;20025;-80
2020/12/02 10:19:39;;;;;;;23.15;4.18;;;12.20;92.30;;;;;;5068756;28;20039;-82
2020/12/02 10:22:14;;;;;;;17.67;3.17;;;11.70;92.50;;;;;;5068572;28;20037;-81
2020/12/02 10:25:16;;;;;;;23.63;5.05;;;11.40;92.90;;;;;;5068770;28;20021;-80
2020/12/02 10:28:08;;;;;;;24.33;4.80;;;11.10;92.80;;;;;;5069946;28;20096;-80
2020/12/02 10:30:58;;;;;;;20.00;5.15;;;10.80;93.10;;;;;;5071413;28;20482;-80
2020/12/02 10:33:51;;;;;;;27.77;5.38;;;10.50;93.30;;;;;;5048581;28;20037;-81
2020/12/02 10:36:18;;;;;;;24.58;4.60;;;10.10;93.40;;;;;;5066788;28;20368;-80
2020/12/02 10:38:57;;;;;;;28.27;5.53;;;9.90;93.80;;;;;;5052164;28;20170;-81
2020/12/02 10:41:49;;;;;;;19.63;4.88;;;9.80;94.20;;;;;;5068072;28;20027;-80
2020/12/02 10:44:21;;;;;;;21.85;4.40;;;9.80;94.70;;;;;;5049143;28;20036;-82
2020/12/02 10:47:15;;;;;;;20.33;5.15;;;10.30;96.00;;;;;;5068746;28;20020;-80
2020/12/02 10:49:45;;;;;;;21.60;5.10;;;11.10;96.40;;;;;;5069702;28;20020;-81
2020/12/02 10:52:15;;;;;;;19.20;4.63;;;12.10;95.90;;;;;;5068262;28;20016;-80
2020/12/02 10:54:43;;;;;;;;;;;12.80;95.00;;;;;;5069825;28;20024;-81
2020/12/02 10:57:29;;;;;;;20.88;4.72;;;13.40;94.70;;;;;;5067898;28;19961;-80
2020/12/02 10:59:57;;;;;;;20.95;4.85;;;14.00;94.10;;;;;;5067854;28;20060;-81
2020/12/02 11:02:30;;;;;;;23.33;5.53;;;14.50;93.80;;;;;;5067905;28;20028;-83
2020/12/02 11:04:57;;;;;;;19.13;4.30;;;15.00;92.90;;;;;;5068048;28;20367;-80
2020/12/02 11:07:29;;;;;;;17.83;4.35;;;15.30;92.20;;;;;;5069998;28;20088;-81
2020/12/02 11:10:25;;;;;;;21.55;6.30;;;15.50;90.70;;;;;;5070497;28;20613;-78
2020/12/02 11:13:25;;;;;;;22.90;4.70;;;15.80;89.90;;;;;;5069926;28;20570;-81
2020/12/02 11:16:07;;;;;;;22.58;5.95;;;15.90;89.10;;;;;;5068205;28;20024;-80
2020/12/02 11:18:59;;;;;;;22.42;4.70;;;15.90;87.70;;;;;;5069510;28;20391;-68
2020/12/02 11:21:43;;;;;;;18.60;4.55;;;16.00;86.90;;;;;;5048025;28;20041;-80
2020/12/02 11:25:06;;;;;;;20.02;4.65;;;15.60;84.50;;;;;;5069251;28;20024;-81
2020/12/02 11:27:32;;;;;;;19.40;4.88;;;15.00;82.90;;;;;;5028424;28;20032;-81
2020/12/02 11:29:58;;;;;;;22.52;5.18;;;14.40;83.50;;;;;;5030504;28;20043;-80
2020/12/02 11:33:01;;;;;;;13.63;3.90;;;13.90;83.50;;;;;;5020912;28;20041;-80
2020/12/02 11:35:36;;;;;;;25.10;5.47;;;13.40;84.30;;;;;;5008674;28;20029;-79
2020/12/02 11:38:38;;;;;;;18.00;4.40;;;13.10;85.20;;;;;;5048825;28;20021;-79
2020/12/02 11:41:07;;;;;;;13.43;3.72;;;12.80;86.30;;;;;;5037194;28;20086;-78
2020/12/02 11:43:47;;;;;;;20.20;4.72;;;12.80;87.40;;;;;;5059756;28;20040;-81
2020/12/02 11:46:14;;;;;;;;;;;12.70;87.30;;;;;;5071383;28;20017;-80
2020/12/02 11:48:47;;;;;;;29.92;9.15;;;12.80;88.00;;;;;;5067794;28;19936;-81
2020/12/02 11:51:32;;;;;;;31.98;8.15;;;12.90;87.80;;;;;;5067354;28;20444;-80
2020/12/02 11:54:01;;;;;;;18.13;5.63;;;12.90;87.30;;;;;;5068636;28;20052;-81
2020/12/02 11:56:35;;;;;;;20.02;5.47;;;12.70;86.90;;;;;;5067681;28;20359;-81
2020/12/02 11:59:14;;;;;;;18.08;6.05;;;12.50;87.40;;;;;;5068749;28;20108;-81
2020/12/02 12:01:54;;;;;;;22.83;5.03;;;12.60;89.10;;;;;;5068480;28;20052;-81
2020/12/02 12:04:33;;;;;;;20.38;6.93;;;13.00;90.50;;;;;;5067262;28;20043;-81
2020/12/02 12:07:24;;;;;;;24.63;5.43;;;13.60;90.10;;;;;;5067588;28;20146;-81
2020/12/02 12:09:58;;;;;;;18.92;5.18;;;14.10;88.40;;;;;;5067608;28;20067;-81
2020/12/02 12:13:04;;;;;;;18.80;4.28;;;14.40;87.00;;;;;;5067726;28;20487;-81
2020/12/02 12:15:37;;;;;;;19.27;4.38;;;14.50;85.50;;;;;;5067273;28;20115;-79
2020/12/02 12:18:49;;;;;;;22.90;5.93;;;14.60;85.30;;;;;;5068698;28;20040;-80
2020/12/02 12:21:24;;;;;;;17.90;5.20;;;14.70;84.10;;;;;;5064777;28;20033;-81
2020/12/02 12:24:13;;;;;;;22.10;4.82;;;14.50;83.10;;;;;;5066672;28;20040;-80
2020/12/02 12:26:40;;;;;;;;;;;14.20;82.00;;;;;;5069170;28;20044;-82
2020/12/02 12:29:11;;;;;;;17.20;4.18;;;13.80;82.90;;;;;;5067526;28;19935;-80
2020/12/02 12:31:46;;;;;;;17.13;4.45;;;13.40;82.00;;;;;;5066541;28;20024;-81
2020/12/02 12:34:49;;;;;;;22.55;5.20;;;13.00;82.50;;;;;;5064500;28;20020;-81
2020/12/02 12:37:27;;;;;;;30.92;6.72;;;12.50;83.10;;;;;;5067824;28;20132;-80
2020/12/02 12:40:01;;;;;;;15.60;4.25;;;12.00;83.60;;;;;;5070814;28;20115;-82
2020/12/02 12:42:29;;;;;;;16.10;4.68;;;11.70;84.10;;;;;;5074894;28;20051;-79
2020/12/02 12:45:02;;;;;;;19.75;3.83;;;11.40;84.80;;;;;;5091641;28;20030;-78
2020/12/02 12:47:32;;;;;;;18.80;4.47;;;11.20;85.70;;;;;;5091170;28;20107;-79
2020/12/02 12:49:58;;;;;;;14.35;3.30;;;11.00;86.50;;;;;;5088028;28;20091;-79
2020/12/02 12:52:33;;;;;;;20.77;4.15;;;11.00;87.30;;;;;;5052579;28;20483;-80
2020/12/02 12:54:59;;;;;;;18.42;5.03;;;11.00;87.80;;;;;;5071004;28;20040;-69
2020/12/02 12:57:27;;;;;;;18.88;4.53;;;11.00;88.20;;;;;;5071860;28;20127;-79
2020/12/02 12:59:56;;;;;;;14.93;3.92;;;11.10;88.20;;;;;;5070266;28;20383;-79
2020/12/02 13:02:26;;;;;;;23.25;3.90;;;11.10;87.80;;;;;;5082898;28;20032;-78
2020/12/02 13:04:52;;;;;;;24.25;3.88;;;11.10;87.80;;;;;;5079043;28;20028;-80
2020/12/02 13:07:22;;;;;;;18.83;4.10;;;11.10;87.80;;;;;;5070070;28;20191;-79
2020/12/02 13:10:13;;;;;;;16.98;2.88;;;11.00;87.80;;;;;;5070171;28;20470;-79
2020/12/02 13:13:00;;;;;;;17.60;5.53;;;11.00;88.10;;;;;;5069975;28;20036;-81
2020/12/02 13:15:38;;;;;;;21.17;3.40;;;11.00;88.90;;;;;;5071335;28;20388;-77